AirNav  
 
 899 users online  

2NJ2 Sportland Pier Heliport
North Wildwood, New Jersey, USA

GOING TO NORTH WILDWOOD?


FAA INFORMATION EFFECTIVE 09 NOVEMBER 2017

Location

FAA Identifier: 2NJ2
Lat/Long: 39-59-24.0000N / 074-48-05.0000W
39-59.400000N / 074-48.083333W
39.9900000 / -74.8013889
(estimated)
Elevation: 10 ft. / 3 m (estimated)
Variation: 11W (1995)
From city: 1 mile NE of NORTH WILDWOOD, NJ
Time zone: UTC -5 (UTC -4 during Daylight Saving Time)
Zip code: 08060

Heliport Operations

Heliport use: Private use. Permission required prior to landing
Activation date: 08/1997
Control tower: no
ARTCC: NEW YORK CENTER
FSS: MILLVILLE FLIGHT SERVICE STATION
Attendance: MAY-SEP 1700-0000
Wind indicator: yes
Segmented circle: no

Heliport Communications

UNICOM: 122.7
WX ASOS at VAY (3 nm SW): 119.325 (609-267-1176)
WX ASOS at PNE (11 nm NW): PHONE 215-677-0146
WX ASOS at TTN (17 nm N): 126.77 (609-538-8690)
WX AWOS-AV at N81 (19 nm S): 122.7

Nearby radio navigation aids

VOR radial/distance  VOR name  Freq  Var
GXUr275/9.5MC GUIRE VORTAC110.6012W
PNEr130/(11.0)NORTH PHILADELPHIA VOR112.0010W
ARDr173/16.5YARDLEY VOR/DME108.2010W
RBVr238/19.0ROBBINSVILLE VORTAC113.8010W
CYNr311/19.9COYLE VORTAC113.4010W
VCNr026/28.2CEDAR LAKE VOR/DME115.2010W
OODr057/31.4WOODSTOWN VORTAC112.8010W
ACYr352/33.7ATLANTIC CITY VORTAC108.6010W
COLr248/35.2COLTS NECK VOR/DME115.4011W
SBJr194/35.7SOLBERG VOR/DME112.9010W
PTWr121/37.5POTTSTOWN VORTAC116.5009W

 
NDB name  Hdg/Dist  Freq  Var  ID
LAKEHURST272/21.739611WNEL -. . .-..
AMBLER122/23.727512WING .. -. --.
RAINBOW035/37.636311WRNB .-. -. -...

Heliport Services

Runway Information

Helipad H1

Dimensions: 70 x 70 ft. / 21 x 21 m
Surface: wood
Traffic pattern: leftleft

Heliport Ownership and Management from official FAA records

Ownership: Privately-owned
Owner: SPORTLAND INVESTMENTS, INC
SPORTLAND PIER
N. WILDWOOD, NJ 08260
Phone 813-364-8230
Manager: MARC S SEXTON
SPORTLAND PIER
N. WILDWOOD, NJ 08260
Phone 609-729-3681

Heliport Operational Statistics

Aircraft based on the field: 2
Single engine airplanes: 1
Helicopters: 1
    

Instrument Procedures

There are no published instrument procedures at 2NJ2.

Some nearby airports with instrument procedures:

N14 - Flying W Airport (3 nm S)
KVAY - South Jersey Regional Airport (3 nm SW)
N73 - Red Lion Airport (6 nm SE)
KWRI - McGuire Field (Joint Base Mc Guire Dix Lakehurst) Airport (10 nm E)
KPNE - Northeast Philadelphia Airport (11 nm NW)
19N - Camden County Airport (14 nm SW)
N87 - Trenton-Robbinsville Airport (16 nm NE)
KTTN - Trenton Mercer Airport (17 nm N)
N81 - Hammonton Municipal Airport (19 nm S)
 
Loc | Ops | Rwys | IFR | FBO | Links
Com | Nav | Svcs | Stats | Notes


 
Area around 2NJ2 (Sportland Pier Heliport)
 
Road maps at: MapQuest Bing Google
 
Aerial photo
No photo
 
Sectional chart

 
Airport distance calculator
Flying to Sportland Pier Heliport? Find the distance to fly.

From to 2NJ2

Sunrise and sunset
Times for 21-Nov-2017
 Local
(UTC-5)
 Zulu
(UTC)
Morning civil twilight06:2311:23
Sunrise06:5211:52
Sunset16:3821:38
Evening civil twilight17:0722:07

Current date and time
Zulu (UTC)  22-Nov-2017 01:41:12
Local (UTC-5)  21-Nov-2017 20:41:12
 
METAR
KVAY 
4nm SW 
ASOS 119.325 609-267-1176
220054Z AUTO 18004KT 10SM CLR 09/04 A3005 RMK AO2 SLP174 T00940044 $
KWRI 
10nm E 
220056Z AUTO 21007KT 10SM CLR 10/05 A3002 RMK AO2 SLP166 T00950047 $
KPNE 
11nm NW 
220054Z 21007KT 10SM CLR 12/05 A3005 RMK AO2 SLP176 T01220050
KTTN 
18nm N 
ASOS 133.70 609-538-8690
220053Z 19004KT 10SM CLR 10/04 A3004 RMK AO2 SLP167 T01000039
TAF
KWRI 
10nm E 
211800Z 2118/2224 22015G25KT 9999 SKC QNH3003INS BECMG 2119/2120 22012KT 9999 FEW200 WS020/20045KT QNH3000INS BECMG 2205/2206 21009KT 9999 FEW019 BKN030 OVC060 WS020/20045KT 620409 QNH2994INS BECMG 2207/2208 22009KT 8000 -SHRA BKN015 OVC050 WS020/20045KT 610409 QNH2994INS BECMG 2210/2211 28009KT 9999 NSW BKN015 OVC050 WS020/20045KT 620806 510809 QNH2996INS BECMG 2213/2214 31012G18KT 9999 FEW030 510809 QNH2996INS TEMPO 2217/2222 32015G25KT BECMG 2222/2223 34009KT 9999 SKC QNH3006INS TX15/2119Z TN
KPNE 
11nm NW 
211958Z 2120/2218 24010G16KT P6SM SKC FM212200 22007KT P6SM SKC FM220300 19005KT P6SM BKN050 FM220700 VRB03KT P6SM SCT025 BKN050 PROB30 2207/2212 5SM -RA OVC025 FM221200 28005KT P6SM SCT025 BKN050 FM221500 31012G20KT P6SM FEW050 BKN090
KTTN 
18nm N 
211959Z 2120/2218 22010G17KT P6SM SKC FM212200 22007KT P6SM SKC FM220300 20005KT P6SM BKN050 FM220800 VRB03KT P6SM SCT025 BKN050 PROB30 2208/2213 5SM -RA OVC025 FM221300 29008KT P6SM SCT025 BKN050 FM221500 32013G19KT P6SM FEW050 BKN090
NOTAMs
Click for the latest NOTAMs
NOTAMs are issued by the DoD/FAA and will open in a separate window not controlled by AirNav.

 

 
 

Would you like to see your business listed on this page?

 If your business provides an interesting product or service to pilots, flight crews, aircraft, or users of the Sportland Pier Heliport, you should consider listing it here.  To start the listing process, click on the button below
 
Add a business
 

Other Pages about Sportland Pier Heliport

Update a link
 
Copyright © AirNav, LLC. All rights reserved. Privacy Policy  Contact